UAL1092 KLAS-KDEN
Flight info
| Callsign | UAL1092 |
|---|---|
| Flight time | 1h 15m |
| Altitude | 35000 |
| Route | GIDGT3 TUKRR BUMMP SSKII4 |
| Aircraft | B739/M-SDE2E3FGHIRWXY/LB1 |
Departure
| Time | 2026-05-04 23:42 |
|---|---|
| Airport | Harry Reid International Airport (KLAS) |
Arrival
| Time | 2026-05-05 00:58 |
|---|---|
| Airport | Denver International Airport (KDEN) |
| Time | Latitude | Longitude | Altitude | Speed | Heading |
|---|---|---|---|---|---|
| 2026-05-04 23:19 | 36.08291 | -115.13875 | 2081 ft | 0 kts | 224° |
| 2026-05-04 23:29 | 36.08291 | -115.13874 | 2082 ft | 0 kts | 224° |
| 2026-05-04 23:30 | 36.08298 | -115.13866 | 2082 ft | 2 kts | 224° |
| 2026-05-04 23:30 | 36.08308 | -115.13854 | 2082 ft | 2 kts | 224° |
| 2026-05-04 23:30 | 36.08320 | -115.13841 | 2083 ft | 2 kts | 224° |
| 2026-05-04 23:30 | 36.08330 | -115.13828 | 2083 ft | 2 kts | 223° |
| 2026-05-04 23:31 | 36.08341 | -115.13815 | 2082 ft | 2 kts | 224° |
| 2026-05-04 23:31 | 36.08352 | -115.13802 | 2081 ft | 2 kts | 224° |
| 2026-05-04 23:31 | 36.08363 | -115.13789 | 2079 ft | 2 kts | 224° |
| 2026-05-04 23:31 | 36.08374 | -115.13777 | 2078 ft | 2 kts | 224° |
| 2026-05-04 23:32 | 36.08385 | -115.13764 | 2078 ft | 2 kts | 224° |
| 2026-05-04 23:32 | 36.08396 | -115.13751 | 2077 ft | 2 kts | 224° |
| 2026-05-04 23:32 | 36.08407 | -115.13738 | 2077 ft | 2 kts | 226° |
| 2026-05-04 23:32 | 36.08414 | -115.13722 | 2077 ft | 2 kts | 257° |
| 2026-05-04 23:33 | 36.08416 | -115.13711 | 2076 ft | 1 kts | 270° |
| 2026-05-04 23:33 | 36.08415 | -115.13702 | 2076 ft | 0 kts | 272° |
| 2026-05-04 23:34 | 36.08415 | -115.13708 | 2076 ft | 3 kts | 269° |
| 2026-05-04 23:35 | 36.08388 | -115.13730 | 2077 ft | 6 kts | 161° |
| 2026-05-04 23:35 | 36.08387 | -115.13670 | 2076 ft | 9 kts | 62° |
| 2026-05-04 23:35 | 36.08413 | -115.13584 | 2074 ft | 12 kts | 81° |
| 2026-05-04 23:35 | 36.08398 | -115.13475 | 2072 ft | 14 kts | 123° |
| 2026-05-04 23:36 | 36.08331 | -115.13392 | 2071 ft | 13 kts | 150° |
| 2026-05-04 23:36 | 36.08246 | -115.13374 | 2071 ft | 11 kts | 180° |
| 2026-05-04 23:36 | 36.08169 | -115.13376 | 2072 ft | 11 kts | 181° |
| 2026-05-04 23:36 | 36.08083 | -115.13377 | 2073 ft | 10 kts | 180° |
| 2026-05-04 23:37 | 36.08054 | -115.13377 | 2073 ft | 0 kts | 180° |
| 2026-05-04 23:38 | 36.08018 | -115.13377 | 2074 ft | 10 kts | 180° |
| 2026-05-04 23:38 | 36.07924 | -115.13377 | 2075 ft | 15 kts | 180° |
| 2026-05-04 23:38 | 36.07812 | -115.13376 | 2076 ft | 15 kts | 177° |
| 2026-05-04 23:39 | 36.07754 | -115.13296 | 2075 ft | 13 kts | 94° |
| 2026-05-04 23:39 | 36.07753 | -115.13151 | 2071 ft | 20 kts | 90° |
| 2026-05-04 23:39 | 36.07755 | -115.12959 | 2068 ft | 24 kts | 90° |
| 2026-05-04 23:39 | 36.07754 | -115.12744 | 2063 ft | 25 kts | 90° |
| 2026-05-04 23:40 | 36.07755 | -115.12532 | 2061 ft | 23 kts | 89° |
| 2026-05-04 23:40 | 36.07756 | -115.12360 | 2058 ft | 15 kts | 89° |
| 2026-05-04 23:40 | 36.07749 | -115.12272 | 2057 ft | 2 kts | 121° |
| 2026-05-04 23:40 | 36.07749 | -115.12271 | 2057 ft | 0 kts | 121° |
| 2026-05-04 23:41 | 36.07739 | -115.12257 | 2057 ft | 7 kts | 137° |
| 2026-05-04 23:41 | 36.07660 | -115.12254 | 2058 ft | 15 kts | 224° |
| 2026-05-04 23:41 | 36.07639 | -115.12493 | 2061 ft | 53 kts | 269° |
| 2026-05-04 23:42 | 36.07633 | -115.13223 | 2074 ft | 114 kts | 269° |
| 2026-05-04 23:42 | 36.07642 | -115.14422 | 2109 ft | 163 kts | 270° |
| 2026-05-04 23:42 | 36.07657 | -115.15964 | 2380 ft | 185 kts | 269° |
| 2026-05-04 23:42 | 36.07711 | -115.17505 | 3164 ft | 178 kts | 266° |
| 2026-05-04 23:43 | 36.07676 | -115.19057 | 3696 ft | 189 kts | 264° |
| 2026-05-04 23:43 | 36.07635 | -115.20752 | 3972 ft | 209 kts | 265° |
| 2026-05-04 23:43 | 36.07628 | -115.22606 | 4233 ft | 221 kts | 266° |
| 2026-05-04 23:43 | 36.07645 | -115.24485 | 4493 ft | 219 kts | 268° |
| 2026-05-04 23:44 | 36.07912 | -115.26321 | 4757 ft | 223 kts | 288° |
| 2026-05-04 23:44 | 36.08861 | -115.27916 | 5033 ft | 237 kts | 317° |
| 2026-05-04 23:44 | 36.10397 | -115.28939 | 5372 ft | 265 kts | 338° |
| 2026-05-04 23:44 | 36.12192 | -115.29486 | 5928 ft | 271 kts | 348° |
| 2026-05-04 23:45 | 36.14118 | -115.29391 | 6522 ft | 281 kts | 15° |
| 2026-05-04 23:45 | 36.15813 | -115.28271 | 7114 ft | 283 kts | 43° |
| 2026-05-04 23:45 | 36.17089 | -115.26414 | 7710 ft | 291 kts | 59° |
| 2026-05-04 23:45 | 36.18090 | -115.24156 | 8249 ft | 300 kts | 69° |
| 2026-05-04 23:46 | 36.18840 | -115.21783 | 8817 ft | 302 kts | 74° |
| 2026-05-04 23:46 | 36.19472 | -115.19278 | 9414 ft | 301 kts | 82° |
| 2026-05-04 23:46 | 36.19639 | -115.16719 | 10021 ft | 302 kts | 94° |
| 2026-05-04 23:46 | 36.19620 | -115.14096 | 10548 ft | 313 kts | 94° |
| 2026-05-04 23:47 | 36.19602 | -115.11350 | 10953 ft | 330 kts | 93° |
| 2026-05-04 23:47 | 36.19599 | -115.08415 | 11275 ft | 349 kts | 92° |
| 2026-05-04 23:47 | 36.19601 | -115.05342 | 11599 ft | 367 kts | 92° |
| 2026-05-04 23:47 | 36.19604 | -115.02127 | 11926 ft | 384 kts | 92° |
| 2026-05-04 23:48 | 36.19606 | -114.98725 | 12259 ft | 397 kts | 92° |
| 2026-05-04 23:48 | 36.19610 | -114.95319 | 12836 ft | 402 kts | 92° |
| 2026-05-04 23:48 | 36.19610 | -114.91821 | 13445 ft | 407 kts | 92° |
| 2026-05-04 23:48 | 36.19608 | -114.88336 | 14025 ft | 414 kts | 92° |
| 2026-05-04 23:49 | 36.19604 | -114.84721 | 14618 ft | 420 kts | 92° |
| 2026-05-04 23:49 | 36.19598 | -114.81100 | 15213 ft | 424 kts | 93° |
| 2026-05-04 23:49 | 36.19592 | -114.77465 | 15821 ft | 426 kts | 93° |
| 2026-05-04 23:49 | 36.19584 | -114.73749 | 16438 ft | 432 kts | 93° |
| 2026-05-04 23:50 | 36.19572 | -114.70047 | 16993 ft | 438 kts | 93° |
| 2026-05-04 23:50 | 36.19560 | -114.66224 | 17469 ft | 445 kts | 93° |
| 2026-05-04 23:50 | 36.19550 | -114.62423 | 17924 ft | 449 kts | 93° |
| 2026-05-04 23:50 | 36.19543 | -114.58552 | 18393 ft | 453 kts | 93° |
| 2026-05-04 23:51 | 36.19535 | -114.54625 | 18871 ft | 457 kts | 93° |
| 2026-05-04 23:51 | 36.19523 | -114.50697 | 19338 ft | 462 kts | 93° |
| 2026-05-04 23:51 | 36.19508 | -114.46684 | 19820 ft | 468 kts | 93° |
| 2026-05-04 23:51 | 36.19494 | -114.42670 | 20294 ft | 473 kts | 94° |
| 2026-05-04 23:52 | 36.19480 | -114.38590 | 20781 ft | 475 kts | 93° |
| 2026-05-04 23:52 | 36.19464 | -114.34463 | 21255 ft | 480 kts | 93° |
| 2026-05-04 23:52 | 36.19447 | -114.30351 | 21733 ft | 484 kts | 94° |
| 2026-05-04 23:52 | 36.19450 | -114.26150 | 22224 ft | 488 kts | 91° |
| 2026-05-04 23:53 | 36.19618 | -114.21971 | 22698 ft | 493 kts | 88° |
| 2026-05-04 23:53 | 36.19982 | -114.17711 | 23181 ft | 497 kts | 85° |
| 2026-05-04 23:53 | 36.20457 | -114.13483 | 23643 ft | 501 kts | 84° |
| 2026-05-04 23:53 | 36.20995 | -114.09199 | 24111 ft | 504 kts | 83° |
| 2026-05-04 23:54 | 36.21552 | -114.04929 | 24574 ft | 507 kts | 83° |
| 2026-05-04 23:54 | 36.22118 | -114.00590 | 25030 ft | 509 kts | 84° |
| 2026-05-04 23:54 | 36.22665 | -113.96309 | 25477 ft | 511 kts | 85° |
| 2026-05-04 23:54 | 36.23210 | -113.91956 | 25927 ft | 512 kts | 86° |
| 2026-05-04 23:55 | 36.23747 | -113.87561 | 26276 ft | 517 kts | 85° |
| 2026-05-04 23:55 | 36.24280 | -113.83137 | 26587 ft | 522 kts | 86° |
| 2026-05-04 23:55 | 36.25328 | -113.74218 | 27204 ft | 531 kts | 87° |
| 2026-05-04 23:56 | 36.25856 | -113.69659 | 27510 ft | 535 kts | 87° |
| 2026-05-04 23:56 | 36.26384 | -113.65060 | 27821 ft | 539 kts | 87° |
| 2026-05-04 23:56 | 36.26909 | -113.60492 | 28129 ft | 542 kts | 88° |
| 2026-05-04 23:56 | 36.27436 | -113.55891 | 28430 ft | 545 kts | 88° |
| 2026-05-04 23:57 | 36.27970 | -113.51220 | 28737 ft | 548 kts | 88° |
| 2026-05-04 23:57 | 36.28508 | -113.46532 | 29045 ft | 548 kts | 88° |
| 2026-05-04 23:57 | 36.29041 | -113.41907 | 29353 ft | 550 kts | 88° |
| 2026-05-04 23:57 | 36.29577 | -113.37194 | 29687 ft | 550 kts | 88° |
| 2026-05-04 23:58 | 36.30103 | -113.32494 | 30019 ft | 548 kts | 89° |
| 2026-05-04 23:58 | 36.30713 | -113.27807 | 30350 ft | 549 kts | 86° |
| 2026-05-04 23:58 | 36.31513 | -113.23195 | 30679 ft | 553 kts | 81° |
| 2026-05-04 23:58 | 36.32609 | -113.18624 | 31016 ft | 557 kts | 75° |
| 2026-05-04 23:59 | 36.33947 | -113.14075 | 31355 ft | 560 kts | 73° |
| 2026-05-04 23:59 | 36.35414 | -113.09645 | 31685 ft | 561 kts | 69° |
| 2026-05-04 23:59 | 36.37004 | -113.05173 | 32028 ft | 562 kts | 69° |
| 2026-05-04 23:59 | 36.38611 | -113.00780 | 32364 ft | 563 kts | 68° |
| 2026-05-05 00:00 | 36.40229 | -112.96382 | 32700 ft | 564 kts | 68° |
| 2026-05-05 00:00 | 36.40766 | -112.94920 | 32815 ft | 564 kts | 67° |
| 2026-05-05 00:00 | 36.43475 | -112.87519 | 33379 ft | 563 kts | 69° |
| 2026-05-05 00:00 | 36.45065 | -112.83110 | 33746 ft | 563 kts | 69° |
| 2026-05-05 00:01 | 36.46638 | -112.78687 | 34114 ft | 562 kts | 69° |
| 2026-05-05 00:01 | 36.48204 | -112.74216 | 34488 ft | 562 kts | 69° |
| 2026-05-05 00:01 | 36.49741 | -112.69786 | 34857 ft | 562 kts | 68° |
| 2026-05-05 00:01 | 36.51286 | -112.65324 | 34994 ft | 564 kts | 69° |
| 2026-05-05 00:02 | 36.52836 | -112.60840 | 34986 ft | 564 kts | 69° |
| 2026-05-05 00:02 | 36.55905 | -112.51939 | 34998 ft | 563 kts | 68° |
| 2026-05-05 00:03 | 36.59022 | -112.42893 | 35016 ft | 563 kts | 67° |
| 2026-05-05 00:03 | 36.62163 | -112.33816 | 35025 ft | 565 kts | 68° |
| 2026-05-05 00:04 | 36.65277 | -112.24757 | 35037 ft | 572 kts | 68° |
| 2026-05-05 00:04 | 36.68411 | -112.15610 | 35024 ft | 582 kts | 68° |
| 2026-05-05 00:05 | 36.71565 | -112.06304 | 35012 ft | 578 kts | 68° |
| 2026-05-05 00:05 | 36.74684 | -111.97124 | 35005 ft | 578 kts | 67° |
| 2026-05-05 00:06 | 36.77806 | -111.87918 | 34993 ft | 579 kts | 68° |
| 2026-05-05 00:06 | 36.80912 | -111.78715 | 34980 ft | 577 kts | 68° |
| 2026-05-05 00:07 | 36.84025 | -111.69466 | 34972 ft | 580 kts | 67° |
| 2026-05-05 00:07 | 36.87514 | -111.60406 | 34951 ft | 576 kts | 60° |
| 2026-05-05 00:08 | 36.91532 | -111.51833 | 34921 ft | 574 kts | 56° |
| 2026-05-05 00:08 | 36.95758 | -111.43326 | 34905 ft | 575 kts | 57° |
| 2026-05-05 00:09 | 36.99913 | -111.34827 | 34906 ft | 573 kts | 56° |
| 2026-05-05 00:09 | 37.04023 | -111.26257 | 34925 ft | 574 kts | 57° |
| 2026-05-05 00:10 | 37.08109 | -111.17628 | 34939 ft | 576 kts | 58° |
| 2026-05-05 00:10 | 37.12172 | -111.08988 | 34950 ft | 575 kts | 57° |
| 2026-05-05 00:11 | 37.16218 | -111.00365 | 34955 ft | 576 kts | 57° |
| 2026-05-05 00:11 | 37.20258 | -110.91729 | 34963 ft | 575 kts | 58° |
| 2026-05-05 00:12 | 37.24305 | -110.83074 | 34963 ft | 575 kts | 56° |
| 2026-05-05 00:12 | 37.28347 | -110.74440 | 34962 ft | 578 kts | 58° |
| 2026-05-05 00:13 | 37.32386 | -110.65765 | 34955 ft | 575 kts | 57° |
| 2026-05-05 00:13 | 37.36388 | -110.57114 | 34950 ft | 575 kts | 57° |
| 2026-05-05 00:14 | 37.40402 | -110.48396 | 34952 ft | 575 kts | 57° |
| 2026-05-05 00:14 | 37.44407 | -110.39697 | 34969 ft | 575 kts | 58° |
| 2026-05-05 00:15 | 37.48423 | -110.30964 | 34982 ft | 573 kts | 57° |
| 2026-05-05 00:15 | 37.52413 | -110.22279 | 34991 ft | 573 kts | 57° |
| 2026-05-05 00:16 | 37.56390 | -110.13552 | 34995 ft | 575 kts | 58° |
| 2026-05-05 00:16 | 37.60360 | -110.04803 | 35002 ft | 574 kts | 58° |
| 2026-05-05 00:17 | 37.64321 | -109.96121 | 35011 ft | 573 kts | 57° |
| 2026-05-05 00:17 | 37.68278 | -109.87407 | 35016 ft | 573 kts | 57° |
| 2026-05-05 00:18 | 37.72223 | -109.78661 | 35020 ft | 576 kts | 57° |
| 2026-05-05 00:18 | 37.76176 | -109.69920 | 35023 ft | 573 kts | 58° |
| 2026-05-05 00:19 | 37.80151 | -109.61166 | 35025 ft | 574 kts | 58° |
| 2026-05-05 00:19 | 37.84101 | -109.52374 | 35027 ft | 574 kts | 57° |
| 2026-05-05 00:20 | 37.88003 | -109.43616 | 35035 ft | 573 kts | 58° |
| 2026-05-05 00:20 | 37.91905 | -109.34819 | 35032 ft | 572 kts | 58° |
| 2026-05-05 00:21 | 37.95787 | -109.26045 | 35039 ft | 573 kts | 57° |
| 2026-05-05 00:21 | 37.99715 | -109.17184 | 35047 ft | 574 kts | 58° |
| 2026-05-05 00:22 | 38.03616 | -109.08402 | 35052 ft | 574 kts | 58° |
| 2026-05-05 00:22 | 38.07513 | -108.99590 | 35050 ft | 572 kts | 57° |
| 2026-05-05 00:23 | 38.11394 | -108.90746 | 35044 ft | 575 kts | 59° |
| 2026-05-05 00:23 | 38.15067 | -108.81662 | 35047 ft | 579 kts | 60° |
| 2026-05-05 00:24 | 38.18544 | -108.72569 | 35044 ft | 574 kts | 61° |
| 2026-05-05 00:24 | 38.22037 | -108.63382 | 35065 ft | 577 kts | 62° |
| 2026-05-05 00:25 | 38.25551 | -108.54265 | 35076 ft | 578 kts | 61° |
| 2026-05-05 00:25 | 38.29116 | -108.45103 | 35085 ft | 575 kts | 59° |
| 2026-05-05 00:26 | 38.32695 | -108.35918 | 35095 ft | 581 kts | 59° |
| 2026-05-05 00:26 | 38.36256 | -108.26756 | 35123 ft | 581 kts | 61° |
| 2026-05-05 00:27 | 38.39841 | -108.17538 | 35141 ft | 578 kts | 61° |
| 2026-05-05 00:27 | 38.43359 | -108.08363 | 35122 ft | 579 kts | 61° |
| 2026-05-05 00:28 | 38.46873 | -107.99091 | 35077 ft | 582 kts | 62° |
| 2026-05-05 00:28 | 38.50396 | -107.89791 | 35028 ft | 581 kts | 60° |
| 2026-05-05 00:29 | 38.53884 | -107.80578 | 35062 ft | 578 kts | 59° |
| 2026-05-05 00:29 | 38.57393 | -107.71377 | 35139 ft | 582 kts | 60° |
| 2026-05-05 00:30 | 38.60880 | -107.62109 | 35166 ft | 579 kts | 60° |
| 2026-05-05 00:30 | 38.64331 | -107.52780 | 35190 ft | 580 kts | 59° |
| 2026-05-05 00:31 | 38.67755 | -107.43488 | 35189 ft | 579 kts | 59° |
| 2026-05-05 00:31 | 38.71246 | -107.34172 | 35183 ft | 577 kts | 61° |
| 2026-05-05 00:32 | 38.74768 | -107.24899 | 35172 ft | 583 kts | 60° |
| 2026-05-05 00:32 | 38.78323 | -107.15559 | 35176 ft | 580 kts | 59° |
| 2026-05-05 00:33 | 38.81838 | -107.06265 | 35184 ft | 581 kts | 60° |
| 2026-05-05 00:33 | 38.85302 | -106.97014 | 35039 ft | 582 kts | 59° |
| 2026-05-05 00:33 | 38.87056 | -106.92310 | 34736 ft | 583 kts | 60° |
| 2026-05-05 00:34 | 38.88788 | -106.87650 | 34442 ft | 581 kts | 60° |
| 2026-05-05 00:34 | 38.90526 | -106.82980 | 33944 ft | 580 kts | 60° |
| 2026-05-05 00:34 | 38.92271 | -106.78297 | 33084 ft | 584 kts | 60° |
| 2026-05-05 00:34 | 38.94005 | -106.73624 | 32377 ft | 584 kts | 59° |
| 2026-05-05 00:35 | 38.95727 | -106.68951 | 32024 ft | 569 kts | 60° |
| 2026-05-05 00:35 | 38.97369 | -106.64483 | 31807 ft | 552 kts | 60° |
| 2026-05-05 00:35 | 38.98989 | -106.60070 | 31614 ft | 536 kts | 59° |
| 2026-05-05 00:35 | 39.00572 | -106.55753 | 31124 ft | 533 kts | 60° |
| 2026-05-05 00:36 | 39.02144 | -106.51458 | 30539 ft | 527 kts | 60° |
| 2026-05-05 00:36 | 39.03674 | -106.47270 | 29931 ft | 521 kts | 60° |
| 2026-05-05 00:36 | 39.05196 | -106.43090 | 29270 ft | 514 kts | 60° |
| 2026-05-05 00:36 | 39.06710 | -106.38917 | 28608 ft | 507 kts | 60° |
| 2026-05-05 00:37 | 39.08179 | -106.34865 | 27936 ft | 500 kts | 61° |
| 2026-05-05 00:37 | 39.09644 | -106.30821 | 27257 ft | 492 kts | 61° |
| 2026-05-05 00:37 | 39.11078 | -106.26866 | 26602 ft | 484 kts | 61° |
| 2026-05-05 00:37 | 39.12483 | -106.22991 | 25980 ft | 475 kts | 62° |
| 2026-05-05 00:38 | 39.13861 | -106.19190 | 25360 ft | 467 kts | 62° |
| 2026-05-05 00:38 | 39.15221 | -106.15439 | 24736 ft | 459 kts | 62° |
| 2026-05-05 00:38 | 39.16552 | -106.11758 | 24106 ft | 451 kts | 62° |
| 2026-05-05 00:38 | 39.17860 | -106.08134 | 23474 ft | 443 kts | 63° |
| 2026-05-05 00:39 | 39.19141 | -106.04578 | 22842 ft | 436 kts | 63° |
| 2026-05-05 00:39 | 39.20401 | -106.01070 | 22233 ft | 429 kts | 62° |
| 2026-05-05 00:39 | 39.21641 | -105.97608 | 21645 ft | 421 kts | 62° |
| 2026-05-05 00:39 | 39.22858 | -105.94208 | 21190 ft | 410 kts | 63° |
| 2026-05-05 00:40 | 39.24025 | -105.90935 | 20906 ft | 396 kts | 63° |
| 2026-05-05 00:40 | 39.25156 | -105.87772 | 20650 ft | 389 kts | 62° |
| 2026-05-05 00:40 | 39.26291 | -105.84622 | 20373 ft | 387 kts | 62° |
| 2026-05-05 00:40 | 39.27425 | -105.81487 | 20107 ft | 386 kts | 62° |
| 2026-05-05 00:41 | 39.28557 | -105.78356 | 19845 ft | 386 kts | 62° |
| 2026-05-05 00:41 | 39.29681 | -105.75238 | 19578 ft | 382 kts | 62° |
| 2026-05-05 00:41 | 39.30798 | -105.72131 | 19317 ft | 382 kts | 62° |
| 2026-05-05 00:41 | 39.31914 | -105.69029 | 19056 ft | 381 kts | 63° |
| 2026-05-05 00:42 | 39.33022 | -105.65943 | 18799 ft | 376 kts | 62° |
| 2026-05-05 00:42 | 39.34120 | -105.62920 | 18546 ft | 373 kts | 62° |
| 2026-05-05 00:42 | 39.35241 | -105.59864 | 18304 ft | 372 kts | 62° |
| 2026-05-05 00:42 | 39.36356 | -105.56838 | 18063 ft | 372 kts | 62° |
| 2026-05-05 00:43 | 39.37438 | -105.53893 | 17832 ft | 365 kts | 62° |
| 2026-05-05 00:43 | 39.38523 | -105.50927 | 17567 ft | 358 kts | 62° |
| 2026-05-05 00:43 | 39.39571 | -105.48054 | 17287 ft | 352 kts | 62° |
| 2026-05-05 00:43 | 39.40590 | -105.45225 | 17007 ft | 346 kts | 64° |
| 2026-05-05 00:44 | 39.41430 | -105.42326 | 16725 ft | 343 kts | 72° |
| 2026-05-05 00:44 | 39.41816 | -105.39309 | 16445 ft | 340 kts | 85° |
| 2026-05-05 00:44 | 39.41891 | -105.36269 | 16199 ft | 337 kts | 88° |
| 2026-05-05 00:44 | 39.41872 | -105.33255 | 15952 ft | 339 kts | 90° |
| 2026-05-05 00:45 | 39.41840 | -105.30207 | 15697 ft | 338 kts | 90° |
| 2026-05-05 00:45 | 39.41819 | -105.27174 | 15434 ft | 336 kts | 89° |
| 2026-05-05 00:45 | 39.41816 | -105.24162 | 15178 ft | 334 kts | 89° |
| 2026-05-05 00:45 | 39.41824 | -105.21171 | 14946 ft | 330 kts | 89° |
| 2026-05-05 00:46 | 39.41839 | -105.18243 | 14720 ft | 324 kts | 89° |
| 2026-05-05 00:46 | 39.41851 | -105.15376 | 14496 ft | 314 kts | 89° |
| 2026-05-05 00:46 | 39.41861 | -105.12626 | 14278 ft | 299 kts | 89° |
| 2026-05-05 00:46 | 39.41867 | -105.10020 | 14053 ft | 286 kts | 89° |
| 2026-05-05 00:47 | 39.41867 | -105.07474 | 13826 ft | 278 kts | 89° |
| 2026-05-05 00:47 | 39.41869 | -105.04986 | 13596 ft | 277 kts | 89° |
| 2026-05-05 00:47 | 39.41877 | -105.02502 | 13374 ft | 276 kts | 89° |
| 2026-05-05 00:47 | 39.41885 | -105.00013 | 13156 ft | 275 kts | 89° |
| 2026-05-05 00:48 | 39.41895 | -104.97558 | 12947 ft | 275 kts | 89° |
| 2026-05-05 00:48 | 39.41910 | -104.95096 | 12732 ft | 271 kts | 86° |
| 2026-05-05 00:48 | 39.42054 | -104.92694 | 12519 ft | 270 kts | 83° |
| 2026-05-05 00:48 | 39.42270 | -104.90308 | 12303 ft | 268 kts | 82° |
| 2026-05-05 00:49 | 39.42495 | -104.87902 | 12085 ft | 266 kts | 82° |
| 2026-05-05 00:49 | 39.42708 | -104.85542 | 11868 ft | 262 kts | 82° |
| 2026-05-05 00:49 | 39.42914 | -104.83205 | 11635 ft | 263 kts | 82° |
| 2026-05-05 00:49 | 39.43122 | -104.80862 | 11372 ft | 259 kts | 82° |
| 2026-05-05 00:50 | 39.43324 | -104.78567 | 11109 ft | 255 kts | 82° |
| 2026-05-05 00:50 | 39.43563 | -104.76318 | 10850 ft | 255 kts | 76° |
| 2026-05-05 00:50 | 39.44090 | -104.74149 | 10583 ft | 250 kts | 65° |
| 2026-05-05 00:50 | 39.44780 | -104.72086 | 10316 ft | 247 kts | 64° |
| 2026-05-05 00:51 | 39.45535 | -104.70123 | 10052 ft | 244 kts | 56° |
| 2026-05-05 00:51 | 39.46629 | -104.68494 | 9785 ft | 240 kts | 33° |
| 2026-05-05 00:51 | 39.48099 | -104.67522 | 9521 ft | 237 kts | 20° |
| 2026-05-05 00:51 | 39.49623 | -104.66741 | 9257 ft | 237 kts | 20° |
| 2026-05-05 00:52 | 39.51163 | -104.65976 | 9047 ft | 231 kts | 18° |
| 2026-05-05 00:52 | 39.52681 | -104.65305 | 9031 ft | 232 kts | 16° |
| 2026-05-05 00:52 | 39.54221 | -104.64755 | 9031 ft | 233 kts | 11° |
| 2026-05-05 00:52 | 39.55838 | -104.64496 | 9032 ft | 234 kts | 2° |
| 2026-05-05 00:53 | 39.57458 | -104.64465 | 9032 ft | 232 kts | 359° |
| 2026-05-05 00:53 | 39.59089 | -104.64477 | 9033 ft | 234 kts | 359° |
| 2026-05-05 00:53 | 39.60731 | -104.64453 | 9027 ft | 236 kts | 1° |
| 2026-05-05 00:53 | 39.62354 | -104.64418 | 9029 ft | 232 kts | 0° |
| 2026-05-05 00:54 | 39.63970 | -104.64408 | 9027 ft | 233 kts | 0° |
| 2026-05-05 00:54 | 39.65640 | -104.64394 | 8818 ft | 237 kts | 0° |
| 2026-05-05 00:54 | 39.67265 | -104.64372 | 8506 ft | 234 kts | 1° |
| 2026-05-05 00:54 | 39.68863 | -104.64346 | 8195 ft | 224 kts | 359° |
| 2026-05-05 00:55 | 39.70408 | -104.64341 | 7901 ft | 223 kts | 359° |
| 2026-05-05 00:55 | 39.71968 | -104.64314 | 7605 ft | 227 kts | 359° |
| 2026-05-05 00:55 | 39.73561 | -104.64259 | 7321 ft | 227 kts | 0° |
| 2026-05-05 00:55 | 39.75104 | -104.64191 | 6949 ft | 213 kts | 359° |
| 2026-05-05 00:56 | 39.76525 | -104.64217 | 6678 ft | 193 kts | 358° |
| 2026-05-05 00:56 | 39.77802 | -104.64248 | 6467 ft | 175 kts | 359° |
| 2026-05-05 00:56 | 39.78956 | -104.64198 | 6345 ft | 159 kts | 2° |
| 2026-05-05 00:56 | 39.80061 | -104.64212 | 6007 ft | 158 kts | 355° |
| 2026-05-05 00:57 | 39.81199 | -104.64215 | 5792 ft | 168 kts | 2° |
| 2026-05-05 00:57 | 39.82392 | -104.64188 | 5615 ft | 175 kts | 0° |
| 2026-05-05 00:57 | 39.83583 | -104.64168 | 5453 ft | 164 kts | 359° |
| 2026-05-05 00:57 | 39.84555 | -104.64159 | 5442 ft | 104 kts | 0° |
| 2026-05-05 00:58 | 39.85081 | -104.64170 | 5442 ft | 55 kts | 343° |
| 2026-05-05 00:58 | 39.85345 | -104.64320 | 5442 ft | 23 kts | 331° |
| 2026-05-05 00:58 | 39.85464 | -104.64358 | 5441 ft | 15 kts | 360° |
| 2026-05-05 00:58 | 39.85558 | -104.64358 | 5441 ft | 4 kts | 359° |
| 2026-05-05 00:59 | 39.85559 | -104.64358 | 5441 ft | 0 kts | 359° |
| 2026-05-05 01:01 | 39.85580 | -104.64358 | 5441 ft | 8 kts | 359° |
| 2026-05-05 01:01 | 39.85650 | -104.64394 | 5441 ft | 11 kts | 300° |
| 2026-05-05 01:01 | 39.85665 | -104.64507 | 5441 ft | 17 kts | 271° |
| 2026-05-05 01:01 | 39.85667 | -104.64704 | 5441 ft | 25 kts | 270° |
| 2026-05-05 01:02 | 39.85668 | -104.64947 | 5441 ft | 27 kts | 270° |
| 2026-05-05 01:02 | 39.85670 | -104.65191 | 5441 ft | 25 kts | 270° |
| 2026-05-05 01:02 | 39.85672 | -104.65414 | 5441 ft | 23 kts | 271° |
| 2026-05-05 01:02 | 39.85674 | -104.65617 | 5441 ft | 21 kts | 270° |
| 2026-05-05 01:03 | 39.85675 | -104.65801 | 5441 ft | 19 kts | 270° |
| 2026-05-05 01:03 | 39.85676 | -104.65972 | 5441 ft | 18 kts | 270° |
| 2026-05-05 01:03 | 39.85677 | -104.66107 | 5442 ft | 3 kts | 270° |
| 2026-05-05 01:03 | 39.85677 | -104.66111 | 5442 ft | 0 kts | 270° |
| 2026-05-05 01:04 | 39.85677 | -104.66155 | 5441 ft | 10 kts | 270° |
| 2026-05-05 01:05 | 39.85678 | -104.66276 | 5442 ft | 14 kts | 270° |
| 2026-05-05 01:05 | 39.85679 | -104.66421 | 5442 ft | 17 kts | 270° |
| 2026-05-05 01:05 | 39.85661 | -104.66573 | 5442 ft | 16 kts | 257° |
| 2026-05-05 01:05 | 39.85656 | -104.66711 | 5441 ft | 14 kts | 271° |
| 2026-05-05 01:06 | 39.85661 | -104.66837 | 5441 ft | 13 kts | 275° |
| 2026-05-05 01:06 | 39.85704 | -104.66926 | 5441 ft | 10 kts | 312° |
| 2026-05-05 01:06 | 39.85764 | -104.66956 | 5441 ft | 8 kts | 358° |
| 2026-05-05 01:06 | 39.85804 | -104.66956 | 5441 ft | 1 kts | 0° |
| 2026-05-05 01:07 | 39.85806 | -104.66956 | 5441 ft | 0 kts | 1° |